sensor_id;sensor_type;location;lat;lon;timestamp;P1;durP1;ratioP1;P2;durP2;ratioP2
3817;SDS011;1924;48.078;11.516;2022-09-09T00:01:07;31.50;;;0.80;;
3817;SDS011;1924;48.078;11.516;2022-09-09T00:03:39;31.50;;;0.80;;
3817;SDS011;1924;48.078;11.516;2022-09-09T00:06:13;31.40;;;0.80;;
3817;SDS011;1924;48.078;11.516;2022-09-09T00:08:51;31.50;;;0.80;;
3817;SDS011;1924;48.078;11.516;2022-09-09T00:11:26;31.40;;;0.80;;
3817;SDS011;1924;48.078;11.516;2022-09-09T00:13:59;31.17;;;0.80;;
3817;SDS011;1924;48.078;11.516;2022-09-09T00:16:34;31.40;;;0.80;;
3817;SDS011;1924;48.078;11.516;2022-09-09T00:19:07;31.40;;;0.80;;
3817;SDS011;1924;48.078;11.516;2022-09-09T00:21:43;31.17;;;0.80;;
3817;SDS011;1924;48.078;11.516;2022-09-09T00:24:22;31.23;;;0.80;;
3817;SDS011;1924;48.078;11.516;2022-09-09T00:26:53;31.40;;;0.80;;
3817;SDS011;1924;48.078;11.516;2022-09-09T00:29:28;31.50;;;0.80;;
3817;SDS011;1924;48.078;11.516;2022-09-09T00:32:07;31.33;;;0.80;;
3817;SDS011;1924;48.078;11.516;2022-09-09T00:34:46;31.30;;;0.80;;
3817;SDS011;1924;48.078;11.516;2022-09-09T00:37:16;31.40;;;0.80;;
3817;SDS011;1924;48.078;11.516;2022-09-09T00:39:45;31.40;;;0.80;;
3817;SDS011;1924;48.078;11.516;2022-09-09T00:42:14;31.23;;;0.80;;
3817;SDS011;1924;48.078;11.516;2022-09-09T00:44:51;31.30;;;0.80;;
3817;SDS011;1924;48.078;11.516;2022-09-09T00:47:29;31.37;;;0.80;;
3817;SDS011;1924;48.078;11.516;2022-09-09T00:50:10;31.50;;;0.80;;
3817;SDS011;1924;48.078;11.516;2022-09-09T00:52:54;31.40;;;0.80;;
3817;SDS011;1924;48.078;11.516;2022-09-09T00:55:28;31.37;;;0.80;;
3817;SDS011;1924;48.078;11.516;2022-09-09T00:58:06;31.37;;;0.80;;
3817;SDS011;1924;48.078;11.516;2022-09-09T01:00:35;31.47;;;0.80;;
3817;SDS011;1924;48.078;11.516;2022-09-09T01:03:19;31.20;;;0.80;;
3817;SDS011;1924;48.078;11.516;2022-09-09T01:05:51;31.27;;;0.80;;
3817;SDS011;1924;48.078;11.516;2022-09-09T01:11:41;31.40;;;0.80;;
3817;SDS011;1924;48.078;11.516;2022-09-09T01:14:19;31.30;;;0.80;;
3817;SDS011;1924;48.078;11.516;2022-09-09T01:16:53;31.37;;;0.80;;
3817;SDS011;1924;48.078;11.516;2022-09-09T01:19:24;31.60;;;0.80;;
3817;SDS011;1924;48.078;11.516;2022-09-09T01:22:00;31.37;;;0.80;;
3817;SDS011;1924;48.078;11.516;2022-09-09T01:24:35;31.30;;;0.80;;
3817;SDS011;1924;48.078;11.516;2022-09-09T01:27:09;31.37;;;0.80;;
3817;SDS011;1924;48.078;11.516;2022-09-09T01:29:38;31.50;;;0.80;;
3817;SDS011;1924;48.078;11.516;2022-09-09T01:35:08;31.60;;;0.80;;
3817;SDS011;1924;48.078;11.516;2022-09-09T01:37:39;31.40;;;0.80;;
3817;SDS011;1924;48.078;11.516;2022-09-09T01:40:09;31.60;;;0.80;;
3817;SDS011;1924;48.078;11.516;2022-09-09T01:42:37;31.60;;;0.80;;
3817;SDS011;1924;48.078;11.516;2022-09-09T01:45:04;31.40;;;0.80;;
3817;SDS011;1924;48.078;11.516;2022-09-09T01:47:32;31.57;;;0.80;;
3817;SDS011;1924;48.078;11.516;2022-09-09T01:49:59;31.60;;;0.80;;
3817;SDS011;1924;48.078;11.516;2022-09-09T01:52:27;31.53;;;0.80;;
3817;SDS011;1924;48.078;11.516;2022-09-09T01:54:55;31.50;;;0.80;;
3817;SDS011;1924;48.078;11.516;2022-09-09T01:57:23;31.57;;;0.80;;
3817;SDS011;1924;48.078;11.516;2022-09-09T02:00:00;31.57;;;0.80;;
3817;SDS011;1924;48.078;11.516;2022-09-09T02:02:32;31.80;;;0.80;;
3817;SDS011;1924;48.078;11.516;2022-09-09T02:05:04;31.80;;;0.80;;
3817;SDS011;1924;48.078;11.516;2022-09-09T02:07:38;31.67;;;0.80;;
3817;SDS011;1924;48.078;11.516;2022-09-09T02:10:09;31.67;;;0.80;;
3817;SDS011;1924;48.078;11.516;2022-09-09T02:12:39;31.70;;;0.80;;
3817;SDS011;1924;48.078;11.516;2022-09-09T02:15:13;31.70;;;0.80;;
3817;SDS011;1924;48.078;11.516;2022-09-09T02:17:45;31.87;;;0.80;;
3817;SDS011;1924;48.078;11.516;2022-09-09T02:20:15;31.80;;;0.80;;
3817;SDS011;1924;48.078;11.516;2022-09-09T02:22:44;31.80;;;0.80;;
3817;SDS011;1924;48.078;11.516;2022-09-09T02:25:15;31.90;;;0.80;;
3817;SDS011;1924;48.078;11.516;2022-09-09T02:27:44;31.90;;;0.80;;
3817;SDS011;1924;48.078;11.516;2022-09-09T02:30:14;31.70;;;0.80;;
3817;SDS011;1924;48.078;11.516;2022-09-09T02:32:41;31.80;;;0.80;;
3817;SDS011;1924;48.078;11.516;2022-09-09T02:35:13;31.87;;;0.80;;
3817;SDS011;1924;48.078;11.516;2022-09-09T02:37:44;31.70;;;0.80;;
3817;SDS011;1924;48.078;11.516;2022-09-09T02:40:12;31.73;;;0.80;;
3817;SDS011;1924;48.078;11.516;2022-09-09T02:42:41;31.90;;;0.80;;
3817;SDS011;1924;48.078;11.516;2022-09-09T02:45:10;31.80;;;0.80;;
3817;SDS011;1924;48.078;11.516;2022-09-09T02:47:40;31.83;;;0.80;;
3817;SDS011;1924;48.078;11.516;2022-09-09T02:50:15;31.90;;;0.80;;
3817;SDS011;1924;48.078;11.516;2022-09-09T02:52:49;31.90;;;0.80;;
3817;SDS011;1924;48.078;11.516;2022-09-09T02:55:27;31.87;;;0.80;;
3817;SDS011;1924;48.078;11.516;2022-09-09T02:58:01;31.70;;;0.80;;
3817;SDS011;1924;48.078;11.516;2022-09-09T03:00:32;31.77;;;0.80;;
3817;SDS011;1924;48.078;11.516;2022-09-09T03:03:02;31.70;;;0.80;;
3817;SDS011;1924;48.078;11.516;2022-09-09T03:05:29;31.80;;;0.80;;
3817;SDS011;1924;48.078;11.516;2022-09-09T03:07:56;31.63;;;0.80;;
3817;SDS011;1924;48.078;11.516;2022-09-09T03:10:24;31.73;;;0.80;;
3817;SDS011;1924;48.078;11.516;2022-09-09T03:12:50;31.80;;;0.80;;
3817;SDS011;1924;48.078;11.516;2022-09-09T03:15:17;31.67;;;0.80;;
3817;SDS011;1924;48.078;11.516;2022-09-09T03:17:44;31.70;;;0.80;;
3817;SDS011;1924;48.078;11.516;2022-09-09T03:20:13;31.57;;;0.80;;
3817;SDS011;1924;48.078;11.516;2022-09-09T03:22:40;31.70;;;0.80;;
3817;SDS011;1924;48.078;11.516;2022-09-09T03:25:07;31.80;;;0.80;;
3817;SDS011;1924;48.078;11.516;2022-09-09T03:27:34;31.83;;;0.80;;
3817;SDS011;1924;48.078;11.516;2022-09-09T03:30:01;31.80;;;0.80;;
3817;SDS011;1924;48.078;11.516;2022-09-09T03:32:28;31.77;;;0.80;;
3817;SDS011;1924;48.078;11.516;2022-09-09T03:34:56;31.70;;;0.80;;
3817;SDS011;1924;48.078;11.516;2022-09-09T03:37:24;31.90;;;0.80;;
3817;SDS011;1924;48.078;11.516;2022-09-09T03:39:51;31.83;;;0.80;;
3817;SDS011;1924;48.078;11.516;2022-09-09T03:42:19;31.80;;;0.80;;
3817;SDS011;1924;48.078;11.516;2022-09-09T03:44:46;31.67;;;0.80;;
3817;SDS011;1924;48.078;11.516;2022-09-09T03:47:15;31.87;;;0.80;;
3817;SDS011;1924;48.078;11.516;2022-09-09T03:49:43;32.00;;;0.80;;
3817;SDS011;1924;48.078;11.516;2022-09-09T03:52:09;31.70;;;0.80;;
3817;SDS011;1924;48.078;11.516;2022-09-09T03:54:38;31.73;;;0.80;;
3817;SDS011;1924;48.078;11.516;2022-09-09T03:57:04;31.90;;;0.80;;
3817;SDS011;1924;48.078;11.516;2022-09-09T03:59:31;32.00;;;0.80;;
3817;SDS011;1924;48.078;11.516;2022-09-09T04:01:58;31.77;;;0.80;;
3817;SDS011;1924;48.078;11.516;2022-09-09T04:04:25;31.80;;;0.80;;
3817;SDS011;1924;48.078;11.516;2022-09-09T04:06:52;31.90;;;0.80;;
3817;SDS011;1924;48.078;11.516;2022-09-09T04:09:19;31.90;;;0.80;;
3817;SDS011;1924;48.078;11.516;2022-09-09T04:11:47;31.87;;;0.80;;
3817;SDS011;1924;48.078;11.516;2022-09-09T04:14:14;31.90;;;0.80;;
3817;SDS011;1924;48.078;11.516;2022-09-09T04:16:41;31.80;;;0.80;;
3817;SDS011;1924;48.078;11.516;2022-09-09T04:19:09;32.00;;;0.80;;
3817;SDS011;1924;48.078;11.516;2022-09-09T04:21:37;31.90;;;0.80;;
3817;SDS011;1924;48.078;11.516;2022-09-09T04:24:05;31.47;;;0.80;;
3817;SDS011;1924;48.078;11.516;2022-09-09T04:26:32;31.83;;;0.80;;
3817;SDS011;1924;48.078;11.516;2022-09-09T04:29:01;32.00;;;0.80;;
3817;SDS011;1924;48.078;11.516;2022-09-09T04:31:28;31.83;;;0.80;;
3817;SDS011;1924;48.078;11.516;2022-09-09T04:33:55;31.90;;;0.80;;
3817;SDS011;1924;48.078;11.516;2022-09-09T04:36:22;31.73;;;0.80;;
3817;SDS011;1924;48.078;11.516;2022-09-09T04:38:49;31.90;;;0.80;;
3817;SDS011;1924;48.078;11.516;2022-09-09T04:41:16;31.80;;;0.80;;
3817;SDS011;1924;48.078;11.516;2022-09-09T04:43:42;31.77;;;0.80;;
3817;SDS011;1924;48.078;11.516;2022-09-09T04:46:11;31.80;;;0.80;;
3817;SDS011;1924;48.078;11.516;2022-09-09T04:48:38;31.80;;;0.80;;
3817;SDS011;1924;48.078;11.516;2022-09-09T04:51:05;31.70;;;0.80;;
3817;SDS011;1924;48.078;11.516;2022-09-09T04:53:34;32.00;;;0.80;;
3817;SDS011;1924;48.078;11.516;2022-09-09T04:56:01;31.97;;;0.80;;
3817;SDS011;1924;48.078;11.516;2022-09-09T04:58:29;31.90;;;0.80;;
3817;SDS011;1924;48.078;11.516;2022-09-09T05:01:02;31.97;;;0.80;;
3817;SDS011;1924;48.078;11.516;2022-09-09T05:03:31;31.90;;;0.80;;
3817;SDS011;1924;48.078;11.516;2022-09-09T05:06:02;31.80;;;0.80;;
3817;SDS011;1924;48.078;11.516;2022-09-09T05:08:33;32.00;;;0.80;;
3817;SDS011;1924;48.078;11.516;2022-09-09T05:11:00;31.67;;;0.80;;
3817;SDS011;1924;48.078;11.516;2022-09-09T05:13:27;31.67;;;0.80;;
3817;SDS011;1924;48.078;11.516;2022-09-09T05:15:56;31.90;;;0.80;;
3817;SDS011;1924;48.078;11.516;2022-09-09T05:18:22;31.80;;;0.80;;
3817;SDS011;1924;48.078;11.516;2022-09-09T05:20:50;32.00;;;0.80;;
3817;SDS011;1924;48.078;11.516;2022-09-09T05:23:17;31.90;;;0.80;;
3817;SDS011;1924;48.078;11.516;2022-09-09T05:25:53;31.87;;;0.80;;
3817;SDS011;1924;48.078;11.516;2022-09-09T05:28:22;31.90;;;0.80;;
3817;SDS011;1924;48.078;11.516;2022-09-09T05:30:54;31.70;;;0.80;;
3817;SDS011;1924;48.078;11.516;2022-09-09T05:33:22;31.83;;;0.80;;
3817;SDS011;1924;48.078;11.516;2022-09-09T05:35:55;31.80;;;0.80;;
3817;SDS011;1924;48.078;11.516;2022-09-09T05:38:23;31.80;;;0.80;;
3817;SDS011;1924;48.078;11.516;2022-09-09T05:40:50;31.80;;;0.80;;
3817;SDS011;1924;48.078;11.516;2022-09-09T05:43:17;31.83;;;0.80;;
3817;SDS011;1924;48.078;11.516;2022-09-09T05:45:44;31.80;;;0.80;;
3817;SDS011;1924;48.078;11.516;2022-09-09T05:48:12;31.80;;;0.80;;
3817;SDS011;1924;48.078;11.516;2022-09-09T05:50:40;31.67;;;0.80;;
3817;SDS011;1924;48.078;11.516;2022-09-09T05:53:09;31.97;;;0.80;;
3817;SDS011;1924;48.078;11.516;2022-09-09T05:55:36;31.70;;;0.80;;
3817;SDS011;1924;48.078;11.516;2022-09-09T05:58:02;31.90;;;0.80;;
3817;SDS011;1924;48.078;11.516;2022-09-09T06:00:29;31.90;;;0.80;;
3817;SDS011;1924;48.078;11.516;2022-09-09T06:02:59;31.77;;;0.80;;
3817;SDS011;1924;48.078;11.516;2022-09-09T06:05:26;31.70;;;0.80;;
3817;SDS011;1924;48.078;11.516;2022-09-09T06:07:53;31.70;;;0.80;;
3817;SDS011;1924;48.078;11.516;2022-09-09T06:10:22;31.73;;;0.80;;
3817;SDS011;1924;48.078;11.516;2022-09-09T06:12:52;31.77;;;0.80;;
3817;SDS011;1924;48.078;11.516;2022-09-09T06:15:19;31.77;;;0.80;;
3817;SDS011;1924;48.078;11.516;2022-09-09T06:17:46;31.90;;;0.80;;
3817;SDS011;1924;48.078;11.516;2022-09-09T06:20:14;31.67;;;0.80;;
3817;SDS011;1924;48.078;11.516;2022-09-09T06:22:41;31.77;;;0.80;;
3817;SDS011;1924;48.078;11.516;2022-09-09T06:25:08;31.90;;;0.80;;
3817;SDS011;1924;48.078;11.516;2022-09-09T06:27:38;31.80;;;0.80;;
3817;SDS011;1924;48.078;11.516;2022-09-09T06:30:06;31.70;;;0.80;;
3817;SDS011;1924;48.078;11.516;2022-09-09T06:32:36;31.47;;;0.80;;
3817;SDS011;1924;48.078;11.516;2022-09-09T06:35:04;31.70;;;0.80;;
3817;SDS011;1924;48.078;11.516;2022-09-09T06:37:32;31.50;;;0.80;;
3817;SDS011;1924;48.078;11.516;2022-09-09T06:39:59;31.80;;;0.80;;
3817;SDS011;1924;48.078;11.516;2022-09-09T06:42:26;31.70;;;0.80;;
3817;SDS011;1924;48.078;11.516;2022-09-09T06:44:54;31.67;;;0.80;;
3817;SDS011;1924;48.078;11.516;2022-09-09T06:47:21;31.70;;;0.80;;
3817;SDS011;1924;48.078;11.516;2022-09-09T06:49:49;31.80;;;0.80;;
3817;SDS011;1924;48.078;11.516;2022-09-09T06:52:16;31.73;;;0.80;;
3817;SDS011;1924;48.078;11.516;2022-09-09T06:54:43;31.60;;;0.80;;
3817;SDS011;1924;48.078;11.516;2022-09-09T06:57:10;31.57;;;0.80;;
3817;SDS011;1924;48.078;11.516;2022-09-09T06:59:37;31.70;;;0.80;;
3817;SDS011;1924;48.078;11.516;2022-09-09T07:02:05;31.70;;;0.80;;
3817;SDS011;1924;48.078;11.516;2022-09-09T07:04:33;31.60;;;0.80;;
3817;SDS011;1924;48.078;11.516;2022-09-09T07:07:00;31.70;;;0.80;;
3817;SDS011;1924;48.078;11.516;2022-09-09T07:09:27;31.83;;;0.80;;
3817;SDS011;1924;48.078;11.516;2022-09-09T07:11:54;31.80;;;0.80;;
3817;SDS011;1924;48.078;11.516;2022-09-09T07:14:27;31.50;;;0.80;;
3817;SDS011;1924;48.078;11.516;2022-09-09T07:16:57;31.70;;;0.80;;
3817;SDS011;1924;48.078;11.516;2022-09-09T07:19:26;31.80;;;0.80;;
3817;SDS011;1924;48.078;11.516;2022-09-09T07:21:53;31.70;;;0.80;;
3817;SDS011;1924;48.078;11.516;2022-09-09T07:24:20;31.70;;;0.80;;
3817;SDS011;1924;48.078;11.516;2022-09-09T07:26:47;31.70;;;0.80;;
3817;SDS011;1924;48.078;11.516;2022-09-09T07:29:13;31.67;;;0.80;;
3817;SDS011;1924;48.078;11.516;2022-09-09T07:31:41;31.53;;;0.80;;
3817;SDS011;1924;48.078;11.516;2022-09-09T07:34:08;31.60;;;0.80;;
3817;SDS011;1924;48.078;11.516;2022-09-09T07:36:36;31.70;;;0.80;;
3817;SDS011;1924;48.078;11.516;2022-09-09T07:39:08;31.50;;;0.80;;
3817;SDS011;1924;48.078;11.516;2022-09-09T07:41:36;31.57;;;0.80;;
3817;SDS011;1924;48.078;11.516;2022-09-09T07:44:05;31.60;;;0.80;;
3817;SDS011;1924;48.078;11.516;2022-09-09T07:46:33;31.70;;;0.80;;
3817;SDS011;1924;48.078;11.516;2022-09-09T07:49:01;31.47;;;0.80;;
3817;SDS011;1924;48.078;11.516;2022-09-09T07:51:29;31.67;;;0.80;;
3817;SDS011;1924;48.078;11.516;2022-09-09T07:53:59;31.63;;;0.80;;
3817;SDS011;1924;48.078;11.516;2022-09-09T07:56:28;31.60;;;0.80;;
3817;SDS011;1924;48.078;11.516;2022-09-09T07:59:00;31.63;;;0.80;;
3817;SDS011;1924;48.078;11.516;2022-09-09T08:01:29;31.53;;;0.80;;
3817;SDS011;1924;48.078;11.516;2022-09-09T08:03:58;31.77;;;0.80;;
3817;SDS011;1924;48.078;11.516;2022-09-09T08:06:27;31.80;;;0.80;;
3817;SDS011;1924;48.078;11.516;2022-09-09T08:08:54;31.80;;;0.80;;
3817;SDS011;1924;48.078;11.516;2022-09-09T08:11:23;31.53;;;0.80;;
3817;SDS011;1924;48.078;11.516;2022-09-09T08:13:51;31.67;;;0.80;;
3817;SDS011;1924;48.078;11.516;2022-09-09T08:16:19;31.67;;;0.80;;
3817;SDS011;1924;48.078;11.516;2022-09-09T08:18:49;31.60;;;0.80;;
3817;SDS011;1924;48.078;11.516;2022-09-09T08:21:17;31.50;;;0.80;;
3817;SDS011;1924;48.078;11.516;2022-09-09T08:23:45;31.70;;;0.80;;
3817;SDS011;1924;48.078;11.516;2022-09-09T08:26:13;31.70;;;0.80;;
3817;SDS011;1924;48.078;11.516;2022-09-09T08:28:43;31.70;;;0.80;;
3817;SDS011;1924;48.078;11.516;2022-09-09T08:31:11;31.80;;;0.80;;
3817;SDS011;1924;48.078;11.516;2022-09-09T08:33:39;31.57;;;0.80;;
3817;SDS011;1924;48.078;11.516;2022-09-09T08:36:06;31.70;;;0.80;;
3817;SDS011;1924;48.078;11.516;2022-09-09T08:38:36;31.47;;;0.80;;
3817;SDS011;1924;48.078;11.516;2022-09-09T08:44:02;31.63;;;0.80;;
3817;SDS011;1924;48.078;11.516;2022-09-09T08:46:35;31.70;;;0.80;;
3817;SDS011;1924;48.078;11.516;2022-09-09T08:49:14;31.77;;;0.80;;
3817;SDS011;1924;48.078;11.516;2022-09-09T08:51:50;31.63;;;0.80;;
3817;SDS011;1924;48.078;11.516;2022-09-09T08:54:20;31.60;;;0.80;;
3817;SDS011;1924;48.078;11.516;2022-09-09T08:56:48;31.60;;;0.80;;
3817;SDS011;1924;48.078;11.516;2022-09-09T08:59:17;31.60;;;0.80;;
3817;SDS011;1924;48.078;11.516;2022-09-09T09:01:56;31.70;;;0.80;;
3817;SDS011;1924;48.078;11.516;2022-09-09T09:04:38;31.80;;;0.80;;
3817;SDS011;1924;48.078;11.516;2022-09-09T09:07:20;31.70;;;0.80;;
3817;SDS011;1924;48.078;11.516;2022-09-09T09:09:57;31.77;;;0.80;;
3817;SDS011;1924;48.078;11.516;2022-09-09T09:12:32;31.53;;;0.80;;
3817;SDS011;1924;48.078;11.516;2022-09-09T09:15:09;31.70;;;0.80;;
3817;SDS011;1924;48.078;11.516;2022-09-09T09:17:41;31.73;;;0.80;;
3817;SDS011;1924;48.078;11.516;2022-09-09T09:20:11;31.80;;;0.80;;
3817;SDS011;1924;48.078;11.516;2022-09-09T09:22:42;31.73;;;0.80;;
3817;SDS011;1924;48.078;11.516;2022-09-09T09:25:15;31.97;;;0.80;;
3817;SDS011;1924;48.078;11.516;2022-09-09T09:27:44;31.90;;;0.80;;
3817;SDS011;1924;48.078;11.516;2022-09-09T09:30:19;31.87;;;0.80;;
3817;SDS011;1924;48.078;11.516;2022-09-09T09:32:49;32.00;;;0.80;;
3817;SDS011;1924;48.078;11.516;2022-09-09T09:35:19;32.00;;;0.80;;
3817;SDS011;1924;48.078;11.516;2022-09-09T09:37:46;31.83;;;0.80;;
3817;SDS011;1924;48.078;11.516;2022-09-09T09:40:14;31.97;;;0.80;;
3817;SDS011;1924;48.078;11.516;2022-09-09T09:42:49;31.97;;;0.80;;
3817;SDS011;1924;48.078;11.516;2022-09-09T09:45:24;32.00;;;0.80;;
3817;SDS011;1924;48.078;11.516;2022-09-09T09:47:59;31.97;;;0.80;;
3817;SDS011;1924;48.078;11.516;2022-09-09T09:50:28;31.93;;;0.80;;
3817;SDS011;1924;48.078;11.516;2022-09-09T09:52:57;31.90;;;0.80;;
3817;SDS011;1924;48.078;11.516;2022-09-09T09:55:25;32.07;;;0.80;;
3817;SDS011;1924;48.078;11.516;2022-09-09T09:57:59;31.97;;;0.80;;
3817;SDS011;1924;48.078;11.516;2022-09-09T10:00:29;31.93;;;0.80;;
3817;SDS011;1924;48.078;11.516;2022-09-09T10:02:55;31.97;;;0.80;;
3817;SDS011;1924;48.078;11.516;2022-09-09T10:05:23;31.83;;;0.80;;
3817;SDS011;1924;48.078;11.516;2022-09-09T10:08:01;32.00;;;0.80;;
3817;SDS011;1924;48.078;11.516;2022-09-09T10:10:33;32.10;;;0.80;;
3817;SDS011;1924;48.078;11.516;2022-09-09T10:13:14;32.07;;;0.80;;
3817;SDS011;1924;48.078;11.516;2022-09-09T10:15:48;31.90;;;0.80;;
3817;SDS011;1924;48.078;11.516;2022-09-09T10:18:34;31.83;;;0.80;;
3817;SDS011;1924;48.078;11.516;2022-09-09T10:21:12;31.87;;;0.80;;
3817;SDS011;1924;48.078;11.516;2022-09-09T10:24:00;32.10;;;0.80;;
3817;SDS011;1924;48.078;11.516;2022-09-09T10:26:58;32.00;;;0.80;;
3817;SDS011;1924;48.078;11.516;2022-09-09T10:29:33;31.90;;;0.80;;
3817;SDS011;1924;48.078;11.516;2022-09-09T10:32:27;32.00;;;0.80;;
3817;SDS011;1924;48.078;11.516;2022-09-09T10:35:02;32.00;;;0.80;;
3817;SDS011;1924;48.078;11.516;2022-09-09T10:37:42;31.87;;;0.80;;
3817;SDS011;1924;48.078;11.516;2022-09-09T10:40:21;31.90;;;0.80;;
3817;SDS011;1924;48.078;11.516;2022-09-09T10:42:59;31.97;;;0.80;;
3817;SDS011;1924;48.078;11.516;2022-09-09T10:45:37;31.90;;;0.80;;
3817;SDS011;1924;48.078;11.516;2022-09-09T10:48:25;32.00;;;0.80;;
3817;SDS011;1924;48.078;11.516;2022-09-09T10:51:08;31.80;;;0.80;;
3817;SDS011;1924;48.078;11.516;2022-09-09T10:53:48;31.90;;;0.80;;
3817;SDS011;1924;48.078;11.516;2022-09-09T10:56:22;31.87;;;0.80;;
3817;SDS011;1924;48.078;11.516;2022-09-09T10:58:51;31.90;;;0.80;;
3817;SDS011;1924;48.078;11.516;2022-09-09T11:01:24;31.80;;;0.80;;
3817;SDS011;1924;48.078;11.516;2022-09-09T11:03:55;31.77;;;0.80;;
3817;SDS011;1924;48.078;11.516;2022-09-09T11:06:28;31.90;;;0.80;;
3817;SDS011;1924;48.078;11.516;2022-09-09T11:09:01;31.80;;;0.80;;
3817;SDS011;1924;48.078;11.516;2022-09-09T11:11:32;31.80;;;0.80;;
3817;SDS011;1924;48.078;11.516;2022-09-09T11:14:03;31.97;;;0.80;;
3817;SDS011;1924;48.078;11.516;2022-09-09T11:16:38;31.90;;;0.80;;
3817;SDS011;1924;48.078;11.516;2022-09-09T11:19:11;31.80;;;0.80;;
3817;SDS011;1924;48.078;11.516;2022-09-09T11:21:44;31.87;;;0.80;;
3817;SDS011;1924;48.078;11.516;2022-09-09T11:24:13;31.73;;;0.80;;
3817;SDS011;1924;48.078;11.516;2022-09-09T11:26:45;31.90;;;0.80;;
3817;SDS011;1924;48.078;11.516;2022-09-09T11:29:24;31.90;;;0.80;;
3817;SDS011;1924;48.078;11.516;2022-09-09T11:32:12;31.90;;;0.80;;
3817;SDS011;1924;48.078;11.516;2022-09-09T11:35:09;31.90;;;0.80;;
3817;SDS011;1924;48.078;11.516;2022-09-09T11:37:55;31.90;;;0.80;;
3817;SDS011;1924;48.078;11.516;2022-09-09T11:40:36;31.87;;;0.80;;
3817;SDS011;1924;48.078;11.516;2022-09-09T11:43:04;31.87;;;0.80;;
3817;SDS011;1924;48.078;11.516;2022-09-09T11:45:37;31.77;;;0.80;;
3817;SDS011;1924;48.078;11.516;2022-09-09T11:48:05;31.90;;;0.80;;
3817;SDS011;1924;48.078;11.516;2022-09-09T11:50:58;31.90;;;0.80;;
3817;SDS011;1924;48.078;11.516;2022-09-09T11:53:26;31.80;;;0.80;;
3817;SDS011;1924;48.078;11.516;2022-09-09T11:56:02;31.87;;;0.80;;
3817;SDS011;1924;48.078;11.516;2022-09-09T11:58:37;31.90;;;0.80;;
3817;SDS011;1924;48.078;11.516;2022-09-09T12:04:09;31.97;;;0.80;;
3817;SDS011;1924;48.078;11.516;2022-09-09T12:06:44;31.80;;;0.73;;
3817;SDS011;1924;48.078;11.516;2022-09-09T12:09:18;31.77;;;0.80;;
3817;SDS011;1924;48.078;11.516;2022-09-09T12:11:49;31.87;;;0.80;;
3817;SDS011;1924;48.078;11.516;2022-09-09T12:14:20;31.70;;;0.80;;
3817;SDS011;1924;48.078;11.516;2022-09-09T12:16:47;31.87;;;0.77;;
3817;SDS011;1924;48.078;11.516;2022-09-09T12:19:15;31.80;;;0.80;;
3817;SDS011;1924;48.078;11.516;2022-09-09T12:21:48;31.60;;;0.80;;
3817;SDS011;1924;48.078;11.516;2022-09-09T12:24:20;31.80;;;0.80;;
3817;SDS011;1924;48.078;11.516;2022-09-09T12:26:55;31.70;;;0.80;;
3817;SDS011;1924;48.078;11.516;2022-09-09T12:29:29;31.80;;;0.80;;
3817;SDS011;1924;48.078;11.516;2022-09-09T12:32:04;31.87;;;0.80;;
3817;SDS011;1924;48.078;11.516;2022-09-09T12:34:37;31.60;;;0.80;;
3817;SDS011;1924;48.078;11.516;2022-09-09T12:39:54;31.70;;;0.80;;
3817;SDS011;1924;48.078;11.516;2022-09-09T12:42:22;31.67;;;0.80;;
3817;SDS011;1924;48.078;11.516;2022-09-09T12:44:50;31.77;;;0.80;;
3817;SDS011;1924;48.078;11.516;2022-09-09T12:47:18;31.57;;;0.80;;
3817;SDS011;1924;48.078;11.516;2022-09-09T12:49:48;31.50;;;0.80;;
3817;SDS011;1924;48.078;11.516;2022-09-09T12:52:17;31.53;;;0.80;;
3817;SDS011;1924;48.078;11.516;2022-09-09T12:54:50;31.60;;;0.80;;
3817;SDS011;1924;48.078;11.516;2022-09-09T12:57:18;31.67;;;0.80;;
3817;SDS011;1924;48.078;11.516;2022-09-09T12:59:47;31.57;;;0.80;;
3817;SDS011;1924;48.078;11.516;2022-09-09T13:02:18;31.67;;;0.80;;
3817;SDS011;1924;48.078;11.516;2022-09-09T13:04:47;31.60;;;0.80;;
3817;SDS011;1924;48.078;11.516;2022-09-09T13:07:15;31.43;;;0.80;;
3817;SDS011;1924;48.078;11.516;2022-09-09T13:09:43;31.40;;;0.80;;
3817;SDS011;1924;48.078;11.516;2022-09-09T13:12:13;31.60;;;0.80;;
3817;SDS011;1924;48.078;11.516;2022-09-09T13:14:42;31.60;;;0.80;;
3817;SDS011;1924;48.078;11.516;2022-09-09T13:17:17;31.50;;;0.80;;
3817;SDS011;1924;48.078;11.516;2022-09-09T13:19:46;31.37;;;0.80;;
3817;SDS011;1924;48.078;11.516;2022-09-09T13:22:19;31.47;;;0.80;;
3817;SDS011;1924;48.078;11.516;2022-09-09T13:24:47;31.17;;;0.80;;
3817;SDS011;1924;48.078;11.516;2022-09-09T13:27:29;31.40;;;0.80;;
3817;SDS011;1924;48.078;11.516;2022-09-09T13:29:59;31.27;;;0.80;;
3817;SDS011;1924;48.078;11.516;2022-09-09T13:32:27;31.20;;;0.80;;
3817;SDS011;1924;48.078;11.516;2022-09-09T13:34:57;31.20;;;0.80;;
3817;SDS011;1924;48.078;11.516;2022-09-09T13:37:28;31.23;;;0.80;;
3817;SDS011;1924;48.078;11.516;2022-09-09T13:39:58;31.40;;;0.80;;
3817;SDS011;1924;48.078;11.516;2022-09-09T13:42:25;31.20;;;0.80;;
3817;SDS011;1924;48.078;11.516;2022-09-09T13:44:55;31.10;;;0.80;;
3817;SDS011;1924;48.078;11.516;2022-09-09T13:47:27;31.20;;;0.80;;
3817;SDS011;1924;48.078;11.516;2022-09-09T13:49:57;31.20;;;0.80;;
3817;SDS011;1924;48.078;11.516;2022-09-09T13:52:30;31.30;;;0.80;;
3817;SDS011;1924;48.078;11.516;2022-09-09T13:54:57;31.20;;;0.80;;
3817;SDS011;1924;48.078;11.516;2022-09-09T13:57:24;31.10;;;0.80;;
3817;SDS011;1924;48.078;11.516;2022-09-09T13:59:53;31.10;;;0.80;;
3817;SDS011;1924;48.078;11.516;2022-09-09T14:02:22;31.20;;;0.80;;
3817;SDS011;1924;48.078;11.516;2022-09-09T14:04:50;31.20;;;0.70;;
3817;SDS011;1924;48.078;11.516;2022-09-09T14:07:20;31.03;;;0.80;;
3817;SDS011;1924;48.078;11.516;2022-09-09T14:09:47;31.10;;;0.80;;
3817;SDS011;1924;48.078;11.516;2022-09-09T14:12:15;31.10;;;0.80;;
3817;SDS011;1924;48.078;11.516;2022-09-09T14:14:43;31.10;;;0.80;;
3817;SDS011;1924;48.078;11.516;2022-09-09T14:17:10;30.90;;;0.80;;
3817;SDS011;1924;48.078;11.516;2022-09-09T14:19:38;31.10;;;0.80;;
3817;SDS011;1924;48.078;11.516;2022-09-09T14:22:04;31.10;;;0.80;;
3817;SDS011;1924;48.078;11.516;2022-09-09T14:24:31;31.03;;;0.80;;
3817;SDS011;1924;48.078;11.516;2022-09-09T14:26:58;31.20;;;0.80;;
3817;SDS011;1924;48.078;11.516;2022-09-09T14:29:25;31.10;;;0.80;;
3817;SDS011;1924;48.078;11.516;2022-09-09T14:31:51;31.03;;;0.80;;
3817;SDS011;1924;48.078;11.516;2022-09-09T14:34:18;31.07;;;0.80;;
3817;SDS011;1924;48.078;11.516;2022-09-09T14:36:46;31.20;;;0.80;;
3817;SDS011;1924;48.078;11.516;2022-09-09T14:39:13;31.10;;;0.80;;
3817;SDS011;1924;48.078;11.516;2022-09-09T14:41:40;31.30;;;0.80;;
3817;SDS011;1924;48.078;11.516;2022-09-09T14:44:06;31.17;;;0.80;;
3817;SDS011;1924;48.078;11.516;2022-09-09T14:46:34;31.20;;;0.80;;
3817;SDS011;1924;48.078;11.516;2022-09-09T14:49:00;31.93;;;0.80;;
3817;SDS011;1924;48.078;11.516;2022-09-09T14:51:27;31.20;;;0.80;;
3817;SDS011;1924;48.078;11.516;2022-09-09T14:53:56;31.20;;;0.80;;
3817;SDS011;1924;48.078;11.516;2022-09-09T14:56:24;31.20;;;0.80;;
3817;SDS011;1924;48.078;11.516;2022-09-09T14:58:52;31.07;;;0.80;;
3817;SDS011;1924;48.078;11.516;2022-09-09T15:01:20;31.17;;;0.80;;
3817;SDS011;1924;48.078;11.516;2022-09-09T15:03:50;31.20;;;0.80;;
3817;SDS011;1924;48.078;11.516;2022-09-09T15:06:22;31.10;;;0.80;;
3817;SDS011;1924;48.078;11.516;2022-09-09T15:08:49;31.10;;;0.80;;
3817;SDS011;1924;48.078;11.516;2022-09-09T15:11:19;31.00;;;0.80;;
3817;SDS011;1924;48.078;11.516;2022-09-09T15:13:47;31.17;;;0.80;;
3817;SDS011;1924;48.078;11.516;2022-09-09T15:16:17;31.10;;;0.80;;
3817;SDS011;1924;48.078;11.516;2022-09-09T15:18:45;31.10;;;0.80;;
3817;SDS011;1924;48.078;11.516;2022-09-09T15:21:17;31.10;;;0.80;;
3817;SDS011;1924;48.078;11.516;2022-09-09T15:23:45;31.00;;;0.80;;